sensor_id;sensor_type;location;lat;lon;timestamp;temperature;humidity
17370;DHT22;8802;52.402;4.920;2022-10-19T00:02:12;14.10;94.10
17370;DHT22;8802;52.402;4.920;2022-10-19T00:04:39;14.10;94.10
17370;DHT22;8802;52.402;4.920;2022-10-19T00:07:06;14.00;94.30
17370;DHT22;8802;52.402;4.920;2022-10-19T00:09:33;14.10;94.20
17370;DHT22;8802;52.402;4.920;2022-10-19T00:12:01;14.00;94.00
17370;DHT22;8802;52.402;4.920;2022-10-19T00:14:28;14.00;94.10
17370;DHT22;8802;52.402;4.920;2022-10-19T00:16:54;14.00;94.30
17370;DHT22;8802;52.402;4.920;2022-10-19T00:19:25;14.00;94.30
17370;DHT22;8802;52.402;4.920;2022-10-19T00:21:52;14.00;94.20
17370;DHT22;8802;52.402;4.920;2022-10-19T00:24:20;13.90;94.60
17370;DHT22;8802;52.402;4.920;2022-10-19T00:26:47;13.90;94.20
17370;DHT22;8802;52.402;4.920;2022-10-19T00:29:15;13.90;94.30
17370;DHT22;8802;52.402;4.920;2022-10-19T00:31:42;13.90;94.30
17370;DHT22;8802;52.402;4.920;2022-10-19T00:34:09;13.90;94.30
17370;DHT22;8802;52.402;4.920;2022-10-19T00:36:38;13.80;94.40
17370;DHT22;8802;52.402;4.920;2022-10-19T00:39:06;13.80;94.40
17370;DHT22;8802;52.402;4.920;2022-10-19T00:41:35;13.80;94.40
17370;DHT22;8802;52.402;4.920;2022-10-19T00:44:05;13.80;94.60
17370;DHT22;8802;52.402;4.920;2022-10-19T00:46:35;13.80;94.60
17370;DHT22;8802;52.402;4.920;2022-10-19T00:49:06;13.80;94.30
17370;DHT22;8802;52.402;4.920;2022-10-19T00:51:35;13.80;94.40
17370;DHT22;8802;52.402;4.920;2022-10-19T00:54:04;13.80;94.30
17370;DHT22;8802;52.402;4.920;2022-10-19T00:56:32;13.80;94.80
17370;DHT22;8802;52.402;4.920;2022-10-19T00:59:01;13.70;94.50
17370;DHT22;8802;52.402;4.920;2022-10-19T01:01:28;13.80;94.50
17370;DHT22;8802;52.402;4.920;2022-10-19T01:03:58;13.70;94.50
17370;DHT22;8802;52.402;4.920;2022-10-19T01:06:26;13.80;94.50
17370;DHT22;8802;52.402;4.920;2022-10-19T01:08:53;13.80;94.60
17370;DHT22;8802;52.402;4.920;2022-10-19T01:11:29;13.70;94.50
17370;DHT22;8802;52.402;4.920;2022-10-19T01:14:20;13.70;94.50
17370;DHT22;8802;52.402;4.920;2022-10-19T01:16:52;13.70;94.60
17370;DHT22;8802;52.402;4.920;2022-10-19T01:19:38;13.70;94.70
17370;DHT22;8802;52.402;4.920;2022-10-19T01:22:17;13.70;94.70
17370;DHT22;8802;52.402;4.920;2022-10-19T01:24:55;13.70;94.70
17370;DHT22;8802;52.402;4.920;2022-10-19T01:28:00;13.80;94.70
17370;DHT22;8802;52.402;4.920;2022-10-19T01:30:40;13.70;94.80
17370;DHT22;8802;52.402;4.920;2022-10-19T01:33:17;13.70;95.00
17370;DHT22;8802;52.402;4.920;2022-10-19T01:35:56;13.70;95.10
17370;DHT22;8802;52.402;4.920;2022-10-19T01:38:32;13.70;95.00
17370;DHT22;8802;52.402;4.920;2022-10-19T01:41:09;13.70;95.00
17370;DHT22;8802;52.402;4.920;2022-10-19T01:43:40;13.70;95.10
17370;DHT22;8802;52.402;4.920;2022-10-19T01:46:12;13.80;95.20
17370;DHT22;8802;52.402;4.920;2022-10-19T01:48:44;13.70;94.90
17370;DHT22;8802;52.402;4.920;2022-10-19T01:51:16;13.70;95.10
17370;DHT22;8802;52.402;4.920;2022-10-19T01:53:47;13.80;95.00
17370;DHT22;8802;52.402;4.920;2022-10-19T01:56:18;13.80;95.10
17370;DHT22;8802;52.402;4.920;2022-10-19T01:58:46;13.80;95.00
17370;DHT22;8802;52.402;4.920;2022-10-19T02:01:17;13.80;95.20
17370;DHT22;8802;52.402;4.920;2022-10-19T02:03:45;13.80;95.20
17370;DHT22;8802;52.402;4.920;2022-10-19T02:06:13;13.80;95.20
17370;DHT22;8802;52.402;4.920;2022-10-19T02:08:43;13.80;95.10
17370;DHT22;8802;52.402;4.920;2022-10-19T02:11:11;13.80;95.10
17370;DHT22;8802;52.402;4.920;2022-10-19T02:13:39;13.80;95.00
17370;DHT22;8802;52.402;4.920;2022-10-19T02:16:12;13.80;95.10
17370;DHT22;8802;52.402;4.920;2022-10-19T02:18:44;13.80;94.90
17370;DHT22;8802;52.402;4.920;2022-10-19T02:21:12;13.80;95.00
17370;DHT22;8802;52.402;4.920;2022-10-19T02:23:39;13.90;94.90
17370;DHT22;8802;52.402;4.920;2022-10-19T02:26:07;13.80;95.00
17370;DHT22;8802;52.402;4.920;2022-10-19T02:28:34;13.80;94.80
17370;DHT22;8802;52.402;4.920;2022-10-19T02:31:02;13.80;94.70
17370;DHT22;8802;52.402;4.920;2022-10-19T02:33:29;13.90;94.70
17370;DHT22;8802;52.402;4.920;2022-10-19T02:35:59;13.80;94.70
17370;DHT22;8802;52.402;4.920;2022-10-19T02:38:26;13.80;94.70
17370;DHT22;8802;52.402;4.920;2022-10-19T02:40:59;13.80;94.60
17370;DHT22;8802;52.402;4.920;2022-10-19T02:43:29;13.80;94.50
17370;DHT22;8802;52.402;4.920;2022-10-19T02:46:01;13.80;94.50
17370;DHT22;8802;52.402;4.920;2022-10-19T02:48:31;13.80;94.70
17370;DHT22;8802;52.402;4.920;2022-10-19T02:51:00;13.80;94.60
17370;DHT22;8802;52.402;4.920;2022-10-19T02:53:27;13.70;94.50
17370;DHT22;8802;52.402;4.920;2022-10-19T02:55:54;13.70;94.50
17370;DHT22;8802;52.402;4.920;2022-10-19T02:58:21;13.70;94.50
17370;DHT22;8802;52.402;4.920;2022-10-19T03:00:48;13.70;94.50
17370;DHT22;8802;52.402;4.920;2022-10-19T03:03:15;13.70;94.60
17370;DHT22;8802;52.402;4.920;2022-10-19T03:05:41;13.70;94.40
17370;DHT22;8802;52.402;4.920;2022-10-19T03:08:09;13.70;94.20
17370;DHT22;8802;52.402;4.920;2022-10-19T03:10:36;13.70;94.10
17370;DHT22;8802;52.402;4.920;2022-10-19T03:13:03;13.60;94.20
17370;DHT22;8802;52.402;4.920;2022-10-19T03:15:30;13.60;94.50
17370;DHT22;8802;52.402;4.920;2022-10-19T03:17:56;13.60;94.50
17370;DHT22;8802;52.402;4.920;2022-10-19T03:20:23;13.50;94.40
17370;DHT22;8802;52.402;4.920;2022-10-19T03:22:50;13.50;94.50
17370;DHT22;8802;52.402;4.920;2022-10-19T03:25:19;13.50;94.50
17370;DHT22;8802;52.402;4.920;2022-10-19T03:27:45;13.50;94.60
17370;DHT22;8802;52.402;4.920;2022-10-19T03:30:12;13.50;94.60
17370;DHT22;8802;52.402;4.920;2022-10-19T03:32:39;13.40;94.60
17370;DHT22;8802;52.402;4.920;2022-10-19T03:35:06;13.40;94.60
17370;DHT22;8802;52.402;4.920;2022-10-19T03:37:33;13.40;94.50
17370;DHT22;8802;52.402;4.920;2022-10-19T03:40:00;13.40;94.50
17370;DHT22;8802;52.402;4.920;2022-10-19T03:42:28;13.40;94.50
17370;DHT22;8802;52.402;4.920;2022-10-19T03:44:55;13.40;94.50
17370;DHT22;8802;52.402;4.920;2022-10-19T03:47:22;13.40;94.50
17370;DHT22;8802;52.402;4.920;2022-10-19T03:49:48;13.40;95.00
17370;DHT22;8802;52.402;4.920;2022-10-19T03:52:16;13.40;94.50
17370;DHT22;8802;52.402;4.920;2022-10-19T03:54:43;13.30;94.50
17370;DHT22;8802;52.402;4.920;2022-10-19T03:57:10;13.30;94.50
17370;DHT22;8802;52.402;4.920;2022-10-19T03:59:39;13.30;94.50
17370;DHT22;8802;52.402;4.920;2022-10-19T04:02:05;13.30;94.50
17370;DHT22;8802;52.402;4.920;2022-10-19T04:04:32;13.30;94.60
17370;DHT22;8802;52.402;4.920;2022-10-19T04:06:59;13.30;94.70
17370;DHT22;8802;52.402;4.920;2022-10-19T04:09:26;13.20;94.70
17370;DHT22;8802;52.402;4.920;2022-10-19T04:11:53;13.20;94.70
17370;DHT22;8802;52.402;4.920;2022-10-19T04:14:20;13.20;94.70
17370;DHT22;8802;52.402;4.920;2022-10-19T04:16:49;13.20;94.70
17370;DHT22;8802;52.402;4.920;2022-10-19T04:19:15;13.20;94.70
17370;DHT22;8802;52.402;4.920;2022-10-19T04:21:42;13.20;94.60
17370;DHT22;8802;52.402;4.920;2022-10-19T04:24:11;13.20;94.60
17370;DHT22;8802;52.402;4.920;2022-10-19T04:26:40;13.20;94.60
17370;DHT22;8802;52.402;4.920;2022-10-19T04:29:08;13.10;94.60
17370;DHT22;8802;52.402;4.920;2022-10-19T04:31:35;13.00;94.60
17370;DHT22;8802;52.402;4.920;2022-10-19T04:34:04;13.10;94.40
17370;DHT22;8802;52.402;4.920;2022-10-19T04:36:31;13.10;94.60
17370;DHT22;8802;52.402;4.920;2022-10-19T04:38:58;13.10;94.50
17370;DHT22;8802;52.402;4.920;2022-10-19T04:41:24;13.10;94.60
17370;DHT22;8802;52.402;4.920;2022-10-19T04:43:54;13.00;94.60
17370;DHT22;8802;52.402;4.920;2022-10-19T04:46:22;13.00;94.70
17370;DHT22;8802;52.402;4.920;2022-10-19T04:48:49;13.10;94.70
17370;DHT22;8802;52.402;4.920;2022-10-19T04:51:18;13.00;94.70
17370;DHT22;8802;52.402;4.920;2022-10-19T04:53:45;13.00;94.60
17370;DHT22;8802;52.402;4.920;2022-10-19T04:56:14;13.00;94.70
17370;DHT22;8802;52.402;4.920;2022-10-19T04:58:42;13.00;94.70
17370;DHT22;8802;52.402;4.920;2022-10-19T05:01:10;13.00;94.80
17370;DHT22;8802;52.402;4.920;2022-10-19T05:03:37;12.90;94.80
17370;DHT22;8802;52.402;4.920;2022-10-19T05:06:05;12.90;94.80
17370;DHT22;8802;52.402;4.920;2022-10-19T05:08:33;12.90;94.70
17370;DHT22;8802;52.402;4.920;2022-10-19T05:11:01;12.90;94.70
17370;DHT22;8802;52.402;4.920;2022-10-19T05:13:30;12.90;94.60
17370;DHT22;8802;52.402;4.920;2022-10-19T05:15:58;12.90;94.70
17370;DHT22;8802;52.402;4.920;2022-10-19T05:18:25;12.90;94.70
17370;DHT22;8802;52.402;4.920;2022-10-19T05:20:59;12.90;94.80
17370;DHT22;8802;52.402;4.920;2022-10-19T05:23:26;12.80;94.70
17370;DHT22;8802;52.402;4.920;2022-10-19T05:26:00;12.80;94.80
17370;DHT22;8802;52.402;4.920;2022-10-19T05:28:27;12.80;94.70
17370;DHT22;8802;52.402;4.920;2022-10-19T05:30:54;12.80;94.80
17370;DHT22;8802;52.402;4.920;2022-10-19T05:33:21;12.80;94.80
17370;DHT22;8802;52.402;4.920;2022-10-19T05:35:47;12.80;94.80
17370;DHT22;8802;52.402;4.920;2022-10-19T05:38:14;12.80;94.80
17370;DHT22;8802;52.402;4.920;2022-10-19T05:40:44;12.80;94.80
17370;DHT22;8802;52.402;4.920;2022-10-19T05:43:12;12.80;95.10
17370;DHT22;8802;52.402;4.920;2022-10-19T05:45:39;12.80;95.10
17370;DHT22;8802;52.402;4.920;2022-10-19T05:48:06;12.80;95.00
17370;DHT22;8802;52.402;4.920;2022-10-19T05:50:32;12.80;95.00
17370;DHT22;8802;52.402;4.920;2022-10-19T05:52:59;12.80;95.10
17370;DHT22;8802;52.402;4.920;2022-10-19T05:55:26;12.80;95.20
17370;DHT22;8802;52.402;4.920;2022-10-19T05:57:53;12.80;95.20
17370;DHT22;8802;52.402;4.920;2022-10-19T06:00:21;12.80;95.20
17370;DHT22;8802;52.402;4.920;2022-10-19T06:02:48;12.80;95.20
17370;DHT22;8802;52.402;4.920;2022-10-19T06:05:14;12.80;95.20
17370;DHT22;8802;52.402;4.920;2022-10-19T06:07:41;12.80;95.70
17370;DHT22;8802;52.402;4.920;2022-10-19T06:10:08;12.80;95.60
17370;DHT22;8802;52.402;4.920;2022-10-19T06:12:36;12.80;95.20
17370;DHT22;8802;52.402;4.920;2022-10-19T06:15:03;12.80;95.10
17370;DHT22;8802;52.402;4.920;2022-10-19T06:17:31;12.90;95.20
17370;DHT22;8802;52.402;4.920;2022-10-19T06:19:58;12.90;95.20
17370;DHT22;8802;52.402;4.920;2022-10-19T06:22:25;12.90;95.20
17370;DHT22;8802;52.402;4.920;2022-10-19T06:24:51;12.90;95.10
17370;DHT22;8802;52.402;4.920;2022-10-19T06:27:18;12.90;95.20
17370;DHT22;8802;52.402;4.920;2022-10-19T06:29:45;12.90;95.20
17370;DHT22;8802;52.402;4.920;2022-10-19T06:32:12;12.90;95.20
17370;DHT22;8802;52.402;4.920;2022-10-19T06:34:40;12.90;95.20
17370;DHT22;8802;52.402;4.920;2022-10-19T06:37:07;12.90;95.20
17370;DHT22;8802;52.402;4.920;2022-10-19T06:39:33;12.90;95.10
17370;DHT22;8802;52.402;4.920;2022-10-19T06:42:00;12.90;95.50
17370;DHT22;8802;52.402;4.920;2022-10-19T06:44:27;12.90;95.20
17370;DHT22;8802;52.402;4.920;2022-10-19T06:46:54;12.90;95.70
17370;DHT22;8802;52.402;4.920;2022-10-19T06:49:21;12.90;95.50
17370;DHT22;8802;52.402;4.920;2022-10-19T06:51:49;12.90;95.60
17370;DHT22;8802;52.402;4.920;2022-10-19T06:54:16;12.90;95.60
17370;DHT22;8802;52.402;4.920;2022-10-19T06:56:42;12.90;95.70
17370;DHT22;8802;52.402;4.920;2022-10-19T06:59:09;13.00;95.80
17370;DHT22;8802;52.402;4.920;2022-10-19T07:01:38;12.90;95.80
17370;DHT22;8802;52.402;4.920;2022-10-19T07:04:04;13.00;96.00
17370;DHT22;8802;52.402;4.920;2022-10-19T07:06:31;13.00;96.00
17370;DHT22;8802;52.402;4.920;2022-10-19T07:08:59;13.00;96.20
17370;DHT22;8802;52.402;4.920;2022-10-19T07:11:27;13.00;96.20
17370;DHT22;8802;52.402;4.920;2022-10-19T07:13:54;13.00;96.20
17370;DHT22;8802;52.402;4.920;2022-10-19T07:16:21;13.10;96.20
17370;DHT22;8802;52.402;4.920;2022-10-19T07:18:49;13.10;96.20
17370;DHT22;8802;52.402;4.920;2022-10-19T07:21:17;13.10;96.20
17370;DHT22;8802;52.402;4.920;2022-10-19T07:23:45;13.10;96.30
17370;DHT22;8802;52.402;4.920;2022-10-19T07:26:15;13.10;96.40
17370;DHT22;8802;52.402;4.920;2022-10-19T07:28:44;13.10;96.40
17370;DHT22;8802;52.402;4.920;2022-10-19T07:31:12;13.10;96.80
17370;DHT22;8802;52.402;4.920;2022-10-19T07:33:39;13.20;96.40
17370;DHT22;8802;52.402;4.920;2022-10-19T07:36:09;13.20;96.50
17370;DHT22;8802;52.402;4.920;2022-10-19T07:38:37;13.20;96.60
17370;DHT22;8802;52.402;4.920;2022-10-19T07:41:06;13.20;96.60
17370;DHT22;8802;52.402;4.920;2022-10-19T07:43:34;13.20;96.60
17370;DHT22;8802;52.402;4.920;2022-10-19T07:46:03;13.30;96.70
17370;DHT22;8802;52.402;4.920;2022-10-19T07:48:30;13.30;96.70
17370;DHT22;8802;52.402;4.920;2022-10-19T07:51:01;13.40;96.60
17370;DHT22;8802;52.402;4.920;2022-10-19T07:53:28;13.40;96.70
17370;DHT22;8802;52.402;4.920;2022-10-19T07:55:55;13.50;96.70
17370;DHT22;8802;52.402;4.920;2022-10-19T07:58:28;13.50;96.70
17370;DHT22;8802;52.402;4.920;2022-10-19T08:01:00;13.50;96.60
17370;DHT22;8802;52.402;4.920;2022-10-19T08:03:27;13.50;96.90
17370;DHT22;8802;52.402;4.920;2022-10-19T08:05:58;13.60;96.50
17370;DHT22;8802;52.402;4.920;2022-10-19T08:08:25;13.60;96.50
17370;DHT22;8802;52.402;4.920;2022-10-19T08:10:51;13.60;96.40
17370;DHT22;8802;52.402;4.920;2022-10-19T08:13:18;13.70;96.40
17370;DHT22;8802;52.402;4.920;2022-10-19T08:15:45;13.70;96.40
17370;DHT22;8802;52.402;4.920;2022-10-19T08:18:13;13.80;96.40
17370;DHT22;8802;52.402;4.920;2022-10-19T08:20:41;13.90;96.30
17370;DHT22;8802;52.402;4.920;2022-10-19T08:23:09;13.90;96.30
17370;DHT22;8802;52.402;4.920;2022-10-19T08:25:36;14.00;96.20
17370;DHT22;8802;52.402;4.920;2022-10-19T08:28:02;14.00;95.90
17370;DHT22;8802;52.402;4.920;2022-10-19T08:30:29;14.10;95.80
17370;DHT22;8802;52.402;4.920;2022-10-19T08:32:56;14.20;95.70
17370;DHT22;8802;52.402;4.920;2022-10-19T08:35:24;14.30;95.50
17370;DHT22;8802;52.402;4.920;2022-10-19T08:37:51;14.30;95.40
17370;DHT22;8802;52.402;4.920;2022-10-19T08:40:22;14.30;95.30
17370;DHT22;8802;52.402;4.920;2022-10-19T08:42:54;14.40;95.20
17370;DHT22;8802;52.402;4.920;2022-10-19T08:45:29;14.50;95.20
17370;DHT22;8802;52.402;4.920;2022-10-19T08:48:09;14.60;95.00
17370;DHT22;8802;52.402;4.920;2022-10-19T08:50:43;14.60;95.00
17370;DHT22;8802;52.402;4.920;2022-10-19T08:53:14;14.70;95.00
17370;DHT22;8802;52.402;4.920;2022-10-19T08:55:50;14.80;94.70
17370;DHT22;8802;52.402;4.920;2022-10-19T08:58:30;14.90;94.60
17370;DHT22;8802;52.402;4.920;2022-10-19T09:01:02;15.00;94.60
17370;DHT22;8802;52.402;4.920;2022-10-19T09:03:37;15.10;94.40
17370;DHT22;8802;52.402;4.920;2022-10-19T09:06:17;15.10;94.30
17370;DHT22;8802;52.402;4.920;2022-10-19T09:08:47;15.20;94.10
17370;DHT22;8802;52.402;4.920;2022-10-19T09:11:18;15.30;93.80
17370;DHT22;8802;52.402;4.920;2022-10-19T09:13:47;15.40;93.80
17370;DHT22;8802;52.402;4.920;2022-10-19T09:16:17;15.40;93.80
17370;DHT22;8802;52.402;4.920;2022-10-19T09:18:45;15.50;93.70
17370;DHT22;8802;52.402;4.920;2022-10-19T09:21:18;15.60;93.70
17370;DHT22;8802;52.402;4.920;2022-10-19T09:23:49;15.70;93.30
17370;DHT22;8802;52.402;4.920;2022-10-19T09:26:21;15.70;93.10
17370;DHT22;8802;52.402;4.920;2022-10-19T09:28:53;15.80;92.90
17370;DHT22;8802;52.402;4.920;2022-10-19T09:31:27;15.90;92.70
17370;DHT22;8802;52.402;4.920;2022-10-19T09:33:58;16.00;92.70
17370;DHT22;8802;52.402;4.920;2022-10-19T09:36:35;16.00;92.60
17370;DHT22;8802;52.402;4.920;2022-10-19T09:39:03;16.10;92.30
17370;DHT22;8802;52.402;4.920;2022-10-19T09:41:30;16.20;92.20
17370;DHT22;8802;52.402;4.920;2022-10-19T09:43:57;16.30;92.50
17370;DHT22;8802;52.402;4.920;2022-10-19T09:46:44;16.30;92.00
17370;DHT22;8802;52.402;4.920;2022-10-19T09:49:16;16.40;91.70
17370;DHT22;8802;52.402;4.920;2022-10-19T09:51:48;16.50;91.40
17370;DHT22;8802;52.402;4.920;2022-10-19T09:54:31;16.50;91.40
17370;DHT22;8802;52.402;4.920;2022-10-19T09:56:59;16.60;91.10
17370;DHT22;8802;52.402;4.920;2022-10-19T09:59:30;16.60;91.00
17370;DHT22;8802;52.402;4.920;2022-10-19T10:02:03;16.60;90.80
17370;DHT22;8802;52.402;4.920;2022-10-19T10:04:36;16.70;90.90
17370;DHT22;8802;52.402;4.920;2022-10-19T10:07:04;16.70;91.00
17370;DHT22;8802;52.402;4.920;2022-10-19T10:09:33;16.80;90.80
17370;DHT22;8802;52.402;4.920;2022-10-19T10:12:04;16.90;90.60
17370;DHT22;8802;52.402;4.920;2022-10-19T10:14:34;16.90;90.80
17370;DHT22;8802;52.402;4.920;2022-10-19T10:17:06;17.00;90.20
17370;DHT22;8802;52.402;4.920;2022-10-19T10:19:34;17.10;90.40
17370;DHT22;8802;52.402;4.920;2022-10-19T10:22:04;17.10;90.20
17370;DHT22;8802;52.402;4.920;2022-10-19T10:24:32;17.20;90.20
17370;DHT22;8802;52.402;4.920;2022-10-19T10:27:00;17.30;90.00
17370;DHT22;8802;52.402;4.920;2022-10-19T10:29:30;17.30;89.80
17370;DHT22;8802;52.402;4.920;2022-10-19T10:31:59;17.40;89.30
17370;DHT22;8802;52.402;4.920;2022-10-19T10:34:32;17.40;89.00
17370;DHT22;8802;52.402;4.920;2022-10-19T10:37:00;17.50;88.30
17370;DHT22;8802;52.402;4.920;2022-10-19T10:39:30;17.50;87.50
17370;DHT22;8802;52.402;4.920;2022-10-19T10:42:03;17.50;87.10
17370;DHT22;8802;52.402;4.920;2022-10-19T10:44:32;17.50;87.20
17370;DHT22;8802;52.402;4.920;2022-10-19T10:47:03;17.50;86.60
17370;DHT22;8802;52.402;4.920;2022-10-19T10:49:34;17.60;86.30
17370;DHT22;8802;52.402;4.920;2022-10-19T10:52:05;17.50;86.90
17370;DHT22;8802;52.402;4.920;2022-10-19T10:54:34;17.60;86.70
17370;DHT22;8802;52.402;4.920;2022-10-19T10:57:12;17.50;86.30
17370;DHT22;8802;52.402;4.920;2022-10-19T10:59:46;17.60;86.30
17370;DHT22;8802;52.402;4.920;2022-10-19T11:02:25;17.60;86.30
17370;DHT22;8802;52.402;4.920;2022-10-19T11:04:57;17.60;85.70
17370;DHT22;8802;52.402;4.920;2022-10-19T11:07:27;17.70;86.50
17370;DHT22;8802;52.402;4.920;2022-10-19T11:09:58;17.70;86.30
17370;DHT22;8802;52.402;4.920;2022-10-19T11:12:36;17.80;86.20
17370;DHT22;8802;52.402;4.920;2022-10-19T11:15:12;17.80;85.40
17370;DHT22;8802;52.402;4.920;2022-10-19T11:17:49;17.80;85.40
17370;DHT22;8802;52.402;4.920;2022-10-19T11:20:18;17.90;84.80
17370;DHT22;8802;52.402;4.920;2022-10-19T11:22:49;17.90;84.90
17370;DHT22;8802;52.402;4.920;2022-10-19T11:25:28;17.90;84.70
17370;DHT22;8802;52.402;4.920;2022-10-19T11:28:08;18.00;84.50
17370;DHT22;8802;52.402;4.920;2022-10-19T11:30:49;18.00;84.50
17370;DHT22;8802;52.402;4.920;2022-10-19T11:33:31;18.00;84.70
17370;DHT22;8802;52.402;4.920;2022-10-19T11:36:03;18.10;84.60
17370;DHT22;8802;52.402;4.920;2022-10-19T11:38:37;18.10;84.20
17370;DHT22;8802;52.402;4.920;2022-10-19T11:41:15;18.20;84.40
17370;DHT22;8802;52.402;4.920;2022-10-19T11:43:56;18.20;84.00
17370;DHT22;8802;52.402;4.920;2022-10-19T11:46:33;18.20;84.00
17370;DHT22;8802;52.402;4.920;2022-10-19T11:49:14;18.30;83.60
17370;DHT22;8802;52.402;4.920;2022-10-19T11:51:45;18.30;83.60
17370;DHT22;8802;52.402;4.920;2022-10-19T11:54:38;18.40;83.80
17370;DHT22;8802;52.402;4.920;2022-10-19T11:57:13;18.40;83.50
17370;DHT22;8802;52.402;4.920;2022-10-19T12:00:07;18.40;84.40
17370;DHT22;8802;52.402;4.920;2022-10-19T12:05:42;18.40;83.10
17370;DHT22;8802;52.402;4.920;2022-10-19T12:08:23;18.40;83.00
17370;DHT22;8802;52.402;4.920;2022-10-19T12:10:58;18.40;82.20
17370;DHT22;8802;52.402;4.920;2022-10-19T12:13:35;18.30;82.80
17370;DHT22;8802;52.402;4.920;2022-10-19T12:16:04;18.30;82.70
17370;DHT22;8802;52.402;4.920;2022-10-19T12:18:35;18.30;83.30
17370;DHT22;8802;52.402;4.920;2022-10-19T12:21:09;18.20;82.70
17370;DHT22;8802;52.402;4.920;2022-10-19T12:23:39;18.20;82.80
17370;DHT22;8802;52.402;4.920;2022-10-19T12:26:13;18.20;83.70
17370;DHT22;8802;52.402;4.920;2022-10-19T12:28:45;18.20;83.00
17370;DHT22;8802;52.402;4.920;2022-10-19T12:31:14;18.10;82.80
17370;DHT22;8802;52.402;4.920;2022-10-19T12:33:45;18.10;83.00
17370;DHT22;8802;52.402;4.920;2022-10-19T12:36:21;18.00;83.00
17370;DHT22;8802;52.402;4.920;2022-10-19T12:38:55;18.00;83.20
17370;DHT22;8802;52.402;4.920;2022-10-19T12:41:30;17.90;83.30
17370;DHT22;8802;52.402;4.920;2022-10-19T12:44:21;17.90;83.40
17370;DHT22;8802;52.402;4.920;2022-10-19T12:46:57;17.90;83.20
17370;DHT22;8802;52.402;4.920;2022-10-19T12:49:45;17.90;83.70
17370;DHT22;8802;52.402;4.920;2022-10-19T12:52:15;17.80;83.80
17370;DHT22;8802;52.402;4.920;2022-10-19T12:54:42;17.80;84.20
17370;DHT22;8802;52.402;4.920;2022-10-19T12:57:26;17.80;84.00
17370;DHT22;8802;52.402;4.920;2022-10-19T13:00:05;17.70;83.70
17370;DHT22;8802;52.402;4.920;2022-10-19T13:02:34;17.70;84.30
17370;DHT22;8802;52.402;4.920;2022-10-19T13:05:03;17.60;84.20
17370;DHT22;8802;52.402;4.920;2022-10-19T13:07:33;17.70;84.30
17370;DHT22;8802;52.402;4.920;2022-10-19T13:10:04;17.70;84.00
17370;DHT22;8802;52.402;4.920;2022-10-19T13:12:45;17.60;84.20
17370;DHT22;8802;52.402;4.920;2022-10-19T13:21:59;17.60;84.50
17370;DHT22;8802;52.402;4.920;2022-10-19T13:24:31;17.60;84.10
17370;DHT22;8802;52.402;4.920;2022-10-19T13:27:26;17.60;84.50
17370;DHT22;8802;52.402;4.920;2022-10-19T13:30:00;17.50;84.30
17370;DHT22;8802;52.402;4.920;2022-10-19T13:32:40;17.50;84.70
17370;DHT22;8802;52.402;4.920;2022-10-19T13:35:35;17.50;84.50
17370;DHT22;8802;52.402;4.920;2022-10-19T13:38:24;17.50;85.00
17370;DHT22;8802;52.402;4.920;2022-10-19T13:41:03;17.50;85.10
17370;DHT22;8802;52.402;4.920;2022-10-19T13:43:33;17.50;85.40
17370;DHT22;8802;52.402;4.920;2022-10-19T13:46:06;17.50;85.60
17370;DHT22;8802;52.402;4.920;2022-10-19T13:48:43;17.50;85.50
17370;DHT22;8802;52.402;4.920;2022-10-19T13:51:21;17.40;85.60
17370;DHT22;8802;52.402;4.920;2022-10-19T13:53:57;17.50;85.80
17370;DHT22;8802;52.402;4.920;2022-10-19T13:57:10;17.40;85.60
17370;DHT22;8802;52.402;4.920;2022-10-19T14:00:14;17.50;85.80
17370;DHT22;8802;52.402;4.920;2022-10-19T14:06:01;17.40;85.90
17370;DHT22;8802;52.402;4.920;2022-10-19T14:11:42;17.50;86.00
17370;DHT22;8802;52.402;4.920;2022-10-19T14:14:15;17.40;85.80
17370;DHT22;8802;52.402;4.920;2022-10-19T14:16:52;17.40;85.60
17370;DHT22;8802;52.402;4.920;2022-10-19T14:19:25;17.40;85.80
17370;DHT22;8802;52.402;4.920;2022-10-19T14:21:57;17.40;85.80
17370;DHT22;8802;52.402;4.920;2022-10-19T14:24:29;17.40;85.80
17370;DHT22;8802;52.402;4.920;2022-10-19T14:26:59;17.40;86.00
17370;DHT22;8802;52.402;4.920;2022-10-19T14:29:26;17.40;86.20
17370;DHT22;8802;52.402;4.920;2022-10-19T14:31:52;17.40;86.50
17370;DHT22;8802;52.402;4.920;2022-10-19T14:34:19;17.40;86.60
17370;DHT22;8802;52.402;4.920;2022-10-19T14:36:47;17.40;86.50
17370;DHT22;8802;52.402;4.920;2022-10-19T14:39:26;17.40;86.60
17370;DHT22;8802;52.402;4.920;2022-10-19T14:41:54;17.40;86.60
17370;DHT22;8802;52.402;4.920;2022-10-19T14:44:36;17.40;86.40
17370;DHT22;8802;52.402;4.920;2022-10-19T14:47:17;17.40;86.50
17370;DHT22;8802;52.402;4.920;2022-10-19T14:49:44;17.40;86.30
17370;DHT22;8802;52.402;4.920;2022-10-19T14:52:14;17.40;86.50
17370;DHT22;8802;52.402;4.920;2022-10-19T14:54:45;17.40;86.30
17370;DHT22;8802;52.402;4.920;2022-10-19T14:57:16;17.50;86.50
17370;DHT22;8802;52.402;4.920;2022-10-19T14:59:47;17.50;86.30
17370;DHT22;8802;52.402;4.920;2022-10-19T15:02:20;17.40;85.90
17370;DHT22;8802;52.402;4.920;2022-10-19T15:04:48;17.40;86.00
17370;DHT22;8802;52.402;4.920;2022-10-19T15:07:19;17.40;86.30
17370;DHT22;8802;52.402;4.920;2022-10-19T15:09:51;17.40;86.50
17370;DHT22;8802;52.402;4.920;2022-10-19T15:12:22;17.40;86.50
17370;DHT22;8802;52.402;4.920;2022-10-19T15:14:52;17.30;86.60
17370;DHT22;8802;52.402;4.920;2022-10-19T15:17:23;17.40;86.70
17370;DHT22;8802;52.402;4.920;2022-10-19T15:19:51;17.30;86.90
17370;DHT22;8802;52.402;4.920;2022-10-19T15:22:20;17.30;86.80
17370;DHT22;8802;52.402;4.920;2022-10-19T15:24:57;17.30;86.80
17370;DHT22;8802;52.402;4.920;2022-10-19T15:27:34;17.30;87.00
17370;DHT22;8802;52.402;4.920;2022-10-19T15:30:05;17.30;87.10
17370;DHT22;8802;52.402;4.920;2022-10-19T15:32:34;17.20;87.20
17370;DHT22;8802;52.402;4.920;2022-10-19T15:35:09;17.20;87.30
17370;DHT22;8802;52.402;4.920;2022-10-19T15:37:38;17.20;87.40
17370;DHT22;8802;52.402;4.920;2022-10-19T15:40:11;17.20;88.50
17370;DHT22;8802;52.402;4.920;2022-10-19T15:42:39;17.10;87.50
17370;DHT22;8802;52.402;4.920;2022-10-19T15:45:31;17.10;87.30
17370;DHT22;8802;52.402;4.920;2022-10-19T15:48:23;17.10;87.00
17370;DHT22;8802;52.402;4.920;2022-10-19T15:50:51;17.00;86.80
17370;DHT22;8802;52.402;4.920;2022-10-19T15:53:19;17.00;86.60
17370;DHT22;8802;52.402;4.920;2022-10-19T15:55:46;17.00;86.70
17370;DHT22;8802;52.402;4.920;2022-10-19T15:58:13;17.00;87.00
17370;DHT22;8802;52.402;4.920;2022-10-19T16:00:41;16.90;87.30
17370;DHT22;8802;52.402;4.920;2022-10-19T16:03:08;16.90;87.60
17370;DHT22;8802;52.402;4.920;2022-10-19T16:05:35;16.90;87.70
17370;DHT22;8802;52.402;4.920;2022-10-19T16:08:04;16.90;88.00
17370;DHT22;8802;52.402;4.920;2022-10-19T16:10:31;16.90;88.10
17370;DHT22;8802;52.402;4.920;2022-10-19T16:12:57;16.80;88.10
17370;DHT22;8802;52.402;4.920;2022-10-19T16:15:24;16.80;88.30
17370;DHT22;8802;52.402;4.920;2022-10-19T16:17:54;16.70;88.40
17370;DHT22;8802;52.402;4.920;2022-10-19T16:20:23;16.70;88.40
17370;DHT22;8802;52.402;4.920;2022-10-19T16:22:50;16.60;88.60
17370;DHT22;8802;52.402;4.920;2022-10-19T16:25:17;16.60;88.70